sensor_id;sensor_type;location;lat;lon;timestamp;temperature;humidity
17701;DHT22;8969;48.576;12.580;2023-08-24T00:01:04;19.90;99.90
17701;DHT22;8969;48.576;12.580;2023-08-24T00:03:32;19.90;99.90
17701;DHT22;8969;48.576;12.580;2023-08-24T00:06:02;19.80;99.90
17701;DHT22;8969;48.576;12.580;2023-08-24T00:08:30;19.80;99.90
17701;DHT22;8969;48.576;12.580;2023-08-24T00:10:58;19.80;99.90
17701;DHT22;8969;48.576;12.580;2023-08-24T00:13:29;19.80;99.90
17701;DHT22;8969;48.576;12.580;2023-08-24T00:15:59;19.70;99.90
17701;DHT22;8969;48.576;12.580;2023-08-24T00:18:27;19.70;99.90
17701;DHT22;8969;48.576;12.580;2023-08-24T00:20:56;19.70;99.90
17701;DHT22;8969;48.576;12.580;2023-08-24T00:23:25;19.70;99.90
17701;DHT22;8969;48.576;12.580;2023-08-24T00:25:53;19.60;99.90
17701;DHT22;8969;48.576;12.580;2023-08-24T00:28:22;19.60;99.90
17701;DHT22;8969;48.576;12.580;2023-08-24T00:30:50;19.60;99.90
17701;DHT22;8969;48.576;12.580;2023-08-24T00:33:20;19.50;99.90
17701;DHT22;8969;48.576;12.580;2023-08-24T00:35:48;19.40;99.90
17701;DHT22;8969;48.576;12.580;2023-08-24T00:38:16;19.40;99.90
17701;DHT22;8969;48.576;12.580;2023-08-24T00:40:44;19.40;99.90
17701;DHT22;8969;48.576;12.580;2023-08-24T00:43:13;19.40;99.90
17701;DHT22;8969;48.576;12.580;2023-08-24T00:45:42;19.40;99.90
17701;DHT22;8969;48.576;12.580;2023-08-24T00:48:10;19.40;99.90
17701;DHT22;8969;48.576;12.580;2023-08-24T00:50:40;19.30;99.90
17701;DHT22;8969;48.576;12.580;2023-08-24T00:53:10;19.40;99.90
17701;DHT22;8969;48.576;12.580;2023-08-24T00:55:38;19.30;99.90
17701;DHT22;8969;48.576;12.580;2023-08-24T00:58:07;19.30;99.90
17701;DHT22;8969;48.576;12.580;2023-08-24T01:00:37;19.30;99.90
17701;DHT22;8969;48.576;12.580;2023-08-24T01:03:05;19.30;99.90
17701;DHT22;8969;48.576;12.580;2023-08-24T01:05:34;19.20;99.90
17701;DHT22;8969;48.576;12.580;2023-08-24T01:08:04;19.20;99.90
17701;DHT22;8969;48.576;12.580;2023-08-24T01:10:38;19.20;99.90
17701;DHT22;8969;48.576;12.580;2023-08-24T01:13:10;19.10;99.90
17701;DHT22;8969;48.576;12.580;2023-08-24T01:15:47;19.10;99.90
17701;DHT22;8969;48.576;12.580;2023-08-24T01:18:16;19.10;99.90
17701;DHT22;8969;48.576;12.580;2023-08-24T01:20:47;19.10;99.90
17701;DHT22;8969;48.576;12.580;2023-08-24T01:26:13;19.10;99.90
17701;DHT22;8969;48.576;12.580;2023-08-24T01:28:44;19.10;99.90
17701;DHT22;8969;48.576;12.580;2023-08-24T01:31:13;19.10;99.90
17701;DHT22;8969;48.576;12.580;2023-08-24T01:33:43;19.10;99.90
17701;DHT22;8969;48.576;12.580;2023-08-24T01:36:13;19.10;99.90
17701;DHT22;8969;48.576;12.580;2023-08-24T01:38:44;19.10;99.90
17701;DHT22;8969;48.576;12.580;2023-08-24T01:41:21;19.00;99.90
17701;DHT22;8969;48.576;12.580;2023-08-24T01:43:53;19.00;99.90
17701;DHT22;8969;48.576;12.580;2023-08-24T01:46:24;18.90;99.90
17701;DHT22;8969;48.576;12.580;2023-08-24T01:48:55;18.90;99.90
17701;DHT22;8969;48.576;12.580;2023-08-24T01:51:25;18.90;99.90
17701;DHT22;8969;48.576;12.580;2023-08-24T01:53:54;18.90;99.90
17701;DHT22;8969;48.576;12.580;2023-08-24T01:56:25;18.90;99.90
17701;DHT22;8969;48.576;12.580;2023-08-24T01:58:53;18.90;99.90
17701;DHT22;8969;48.576;12.580;2023-08-24T02:01:21;18.90;99.90
17701;DHT22;8969;48.576;12.580;2023-08-24T02:03:50;18.90;99.90
17701;DHT22;8969;48.576;12.580;2023-08-24T02:06:18;18.80;99.90
17701;DHT22;8969;48.576;12.580;2023-08-24T02:08:47;18.80;99.90
17701;DHT22;8969;48.576;12.580;2023-08-24T02:11:16;18.80;99.90
17701;DHT22;8969;48.576;12.580;2023-08-24T02:13:46;18.70;99.90
17701;DHT22;8969;48.576;12.580;2023-08-24T02:16:14;18.70;99.90
17701;DHT22;8969;48.576;12.580;2023-08-24T02:18:42;18.70;99.90
17701;DHT22;8969;48.576;12.580;2023-08-24T02:21:10;18.60;99.90
17701;DHT22;8969;48.576;12.580;2023-08-24T02:23:41;18.60;99.90
17701;DHT22;8969;48.576;12.580;2023-08-24T02:26:09;18.60;99.90
17701;DHT22;8969;48.576;12.580;2023-08-24T02:28:38;18.50;99.90
17701;DHT22;8969;48.576;12.580;2023-08-24T02:31:10;18.50;99.90
17701;DHT22;8969;48.576;12.580;2023-08-24T02:33:40;18.50;99.90
17701;DHT22;8969;48.576;12.580;2023-08-24T02:36:08;18.50;99.90
17701;DHT22;8969;48.576;12.580;2023-08-24T02:38:37;18.50;99.90
17701;DHT22;8969;48.576;12.580;2023-08-24T02:41:07;18.50;99.90
17701;DHT22;8969;48.576;12.580;2023-08-24T02:43:39;18.50;99.90
17701;DHT22;8969;48.576;12.580;2023-08-24T02:46:08;18.40;99.90
17701;DHT22;8969;48.576;12.580;2023-08-24T02:48:38;18.50;99.90
17701;DHT22;8969;48.576;12.580;2023-08-24T02:51:08;18.50;99.90
17701;DHT22;8969;48.576;12.580;2023-08-24T02:53:36;18.50;99.90
17701;DHT22;8969;48.576;12.580;2023-08-24T02:56:06;18.50;99.90
17701;DHT22;8969;48.576;12.580;2023-08-24T02:58:35;18.50;99.90
17701;DHT22;8969;48.576;12.580;2023-08-24T03:01:05;18.40;99.90
17701;DHT22;8969;48.576;12.580;2023-08-24T03:03:35;18.40;99.90
17701;DHT22;8969;48.576;12.580;2023-08-24T03:06:06;18.40;99.90
17701;DHT22;8969;48.576;12.580;2023-08-24T03:08:36;18.30;99.90
17701;DHT22;8969;48.576;12.580;2023-08-24T03:11:05;18.30;99.90
17701;DHT22;8969;48.576;12.580;2023-08-24T03:13:36;18.30;99.90
17701;DHT22;8969;48.576;12.580;2023-08-24T03:16:05;18.30;99.90
17701;DHT22;8969;48.576;12.580;2023-08-24T03:18:35;18.30;99.90
17701;DHT22;8969;48.576;12.580;2023-08-24T03:21:05;18.30;99.90
17701;DHT22;8969;48.576;12.580;2023-08-24T03:23:34;18.30;99.90
17701;DHT22;8969;48.576;12.580;2023-08-24T03:26:02;18.30;99.90
17701;DHT22;8969;48.576;12.580;2023-08-24T03:28:32;18.20;99.90
17701;DHT22;8969;48.576;12.580;2023-08-24T03:31:03;18.20;99.90
17701;DHT22;8969;48.576;12.580;2023-08-24T03:33:34;18.20;99.90
17701;DHT22;8969;48.576;12.580;2023-08-24T03:36:05;18.20;99.90
17701;DHT22;8969;48.576;12.580;2023-08-24T03:38:33;18.20;99.90
17701;DHT22;8969;48.576;12.580;2023-08-24T03:41:02;18.20;99.90
17701;DHT22;8969;48.576;12.580;2023-08-24T03:43:31;18.20;99.90
17701;DHT22;8969;48.576;12.580;2023-08-24T03:46:02;18.10;99.90
17701;DHT22;8969;48.576;12.580;2023-08-24T03:48:33;18.20;99.90
17701;DHT22;8969;48.576;12.580;2023-08-24T03:51:04;18.20;99.90
17701;DHT22;8969;48.576;12.580;2023-08-24T03:53:36;18.10;99.90
17701;DHT22;8969;48.576;12.580;2023-08-24T03:56:06;18.10;99.90
17701;DHT22;8969;48.576;12.580;2023-08-24T03:58:35;18.10;99.90
17701;DHT22;8969;48.576;12.580;2023-08-24T04:01:04;18.10;99.90
17701;DHT22;8969;48.576;12.580;2023-08-24T04:03:34;18.10;99.90
17701;DHT22;8969;48.576;12.580;2023-08-24T04:06:02;18.10;99.90
17701;DHT22;8969;48.576;12.580;2023-08-24T04:08:32;18.10;99.90
17701;DHT22;8969;48.576;12.580;2023-08-24T04:11:01;18.10;99.90
17701;DHT22;8969;48.576;12.580;2023-08-24T04:13:30;18.20;99.90
17701;DHT22;8969;48.576;12.580;2023-08-24T04:15:59;18.10;99.90
17701;DHT22;8969;48.576;12.580;2023-08-24T04:18:27;18.10;99.90
17701;DHT22;8969;48.576;12.580;2023-08-24T04:20:56;18.10;99.90
17701;DHT22;8969;48.576;12.580;2023-08-24T04:23:25;18.10;99.90
17701;DHT22;8969;48.576;12.580;2023-08-24T04:25:55;18.10;99.90
17701;DHT22;8969;48.576;12.580;2023-08-24T04:28:24;18.10;99.90
17701;DHT22;8969;48.576;12.580;2023-08-24T04:30:53;18.10;99.90
17701;DHT22;8969;48.576;12.580;2023-08-24T04:33:23;18.10;99.90
17701;DHT22;8969;48.576;12.580;2023-08-24T04:35:51;18.20;99.90
17701;DHT22;8969;48.576;12.580;2023-08-24T04:38:19;18.10;99.90
17701;DHT22;8969;48.576;12.580;2023-08-24T04:40:53;18.20;99.90
17701;DHT22;8969;48.576;12.580;2023-08-24T04:43:24;18.20;99.90
17701;DHT22;8969;48.576;12.580;2023-08-24T04:45:54;18.20;99.90
17701;DHT22;8969;48.576;12.580;2023-08-24T04:48:25;18.20;99.90
17701;DHT22;8969;48.576;12.580;2023-08-24T04:50:53;18.20;99.90
17701;DHT22;8969;48.576;12.580;2023-08-24T04:53:23;18.20;99.90
17701;DHT22;8969;48.576;12.580;2023-08-24T04:55:52;18.20;99.90
17701;DHT22;8969;48.576;12.580;2023-08-24T04:58:20;18.30;99.90
17701;DHT22;8969;48.576;12.580;2023-08-24T05:00:50;18.30;99.90
17701;DHT22;8969;48.576;12.580;2023-08-24T05:03:18;18.40;99.90
17701;DHT22;8969;48.576;12.580;2023-08-24T05:05:48;18.40;99.90
17701;DHT22;8969;48.576;12.580;2023-08-24T05:08:17;18.50;99.90
17701;DHT22;8969;48.576;12.580;2023-08-24T05:10:45;18.50;99.90
17701;DHT22;8969;48.576;12.580;2023-08-24T05:13:14;18.60;99.90
17701;DHT22;8969;48.576;12.580;2023-08-24T05:15:43;18.60;99.90
17701;DHT22;8969;48.576;12.580;2023-08-24T05:18:12;18.70;99.90
17701;DHT22;8969;48.576;12.580;2023-08-24T05:20:41;18.70;99.90
17701;DHT22;8969;48.576;12.580;2023-08-24T05:23:09;18.80;99.90
17701;DHT22;8969;48.576;12.580;2023-08-24T05:25:38;18.80;99.90
17701;DHT22;8969;48.576;12.580;2023-08-24T05:28:06;18.80;99.90
17701;DHT22;8969;48.576;12.580;2023-08-24T05:30:35;18.90;99.90
17701;DHT22;8969;48.576;12.580;2023-08-24T05:33:04;19.00;99.90
17701;DHT22;8969;48.576;12.580;2023-08-24T05:35:34;19.10;99.90
17701;DHT22;8969;48.576;12.580;2023-08-24T05:38:03;19.10;99.90
17701;DHT22;8969;48.576;12.580;2023-08-24T05:41:16;19.20;99.90
17701;DHT22;8969;48.576;12.580;2023-08-24T05:44:02;19.30;99.90
17701;DHT22;8969;48.576;12.580;2023-08-24T05:46:31;19.40;99.90
17701;DHT22;8969;48.576;12.580;2023-08-24T05:48:59;19.50;99.90
17701;DHT22;8969;48.576;12.580;2023-08-24T05:51:53;19.50;99.90
17701;DHT22;8969;48.576;12.580;2023-08-24T05:54:22;19.60;99.90
17701;DHT22;8969;48.576;12.580;2023-08-24T05:56:50;19.60;99.90
17701;DHT22;8969;48.576;12.580;2023-08-24T05:59:18;19.70;99.90
17701;DHT22;8969;48.576;12.580;2023-08-24T06:01:46;19.80;99.90
17701;DHT22;8969;48.576;12.580;2023-08-24T06:04:15;19.90;99.90
17701;DHT22;8969;48.576;12.580;2023-08-24T06:06:43;19.90;99.90
17701;DHT22;8969;48.576;12.580;2023-08-24T06:09:12;20.00;99.90
17701;DHT22;8969;48.576;12.580;2023-08-24T06:11:41;20.10;99.90
17701;DHT22;8969;48.576;12.580;2023-08-24T06:14:10;20.10;99.90
17701;DHT22;8969;48.576;12.580;2023-08-24T06:16:39;20.20;99.90
17701;DHT22;8969;48.576;12.580;2023-08-24T06:19:07;20.30;99.90
17701;DHT22;8969;48.576;12.580;2023-08-24T06:21:36;20.40;99.90
17701;DHT22;8969;48.576;12.580;2023-08-24T06:24:04;20.40;99.90
17701;DHT22;8969;48.576;12.580;2023-08-24T06:26:34;20.50;99.90
17701;DHT22;8969;48.576;12.580;2023-08-24T06:29:02;20.60;99.90
17701;DHT22;8969;48.576;12.580;2023-08-24T06:31:30;20.70;99.90
17701;DHT22;8969;48.576;12.580;2023-08-24T06:34:01;20.70;99.90
17701;DHT22;8969;48.576;12.580;2023-08-24T06:36:29;20.80;99.90
17701;DHT22;8969;48.576;12.580;2023-08-24T06:38:57;20.90;99.90
17701;DHT22;8969;48.576;12.580;2023-08-24T06:41:27;21.00;99.90
17701;DHT22;8969;48.576;12.580;2023-08-24T06:44:02;21.10;99.90
17701;DHT22;8969;48.576;12.580;2023-08-24T06:46:31;21.20;99.90
17701;DHT22;8969;48.576;12.580;2023-08-24T06:49:00;21.40;99.90
17701;DHT22;8969;48.576;12.580;2023-08-24T06:51:31;21.50;99.90
17701;DHT22;8969;48.576;12.580;2023-08-24T06:53:59;21.60;99.90
17701;DHT22;8969;48.576;12.580;2023-08-24T06:56:30;21.70;99.90
17701;DHT22;8969;48.576;12.580;2023-08-24T06:58:58;21.80;99.90
17701;DHT22;8969;48.576;12.580;2023-08-24T07:01:27;21.90;99.90
17701;DHT22;8969;48.576;12.580;2023-08-24T07:03:56;22.00;99.90
17701;DHT22;8969;48.576;12.580;2023-08-24T07:06:25;22.00;99.90
17701;DHT22;8969;48.576;12.580;2023-08-24T07:08:53;22.20;99.90
17701;DHT22;8969;48.576;12.580;2023-08-24T07:11:21;22.30;99.90
17701;DHT22;8969;48.576;12.580;2023-08-24T07:13:51;22.50;99.90
17701;DHT22;8969;48.576;12.580;2023-08-24T07:16:20;22.60;99.90
17701;DHT22;8969;48.576;12.580;2023-08-24T07:18:50;22.70;99.90
17701;DHT22;8969;48.576;12.580;2023-08-24T07:21:19;22.80;99.90
17701;DHT22;8969;48.576;12.580;2023-08-24T07:23:48;22.90;99.90
17701;DHT22;8969;48.576;12.580;2023-08-24T07:26:17;23.00;99.90
17701;DHT22;8969;48.576;12.580;2023-08-24T07:28:45;23.10;99.90
17701;DHT22;8969;48.576;12.580;2023-08-24T07:31:13;23.10;99.90
17701;DHT22;8969;48.576;12.580;2023-08-24T07:33:41;23.30;99.90
17701;DHT22;8969;48.576;12.580;2023-08-24T07:36:12;23.40;99.90
17701;DHT22;8969;48.576;12.580;2023-08-24T07:38:40;23.50;99.90
17701;DHT22;8969;48.576;12.580;2023-08-24T07:41:10;23.60;99.90
17701;DHT22;8969;48.576;12.580;2023-08-24T07:43:41;23.70;99.90
17701;DHT22;8969;48.576;12.580;2023-08-24T07:46:09;23.80;99.90
17701;DHT22;8969;48.576;12.580;2023-08-24T07:48:37;23.90;99.90
17701;DHT22;8969;48.576;12.580;2023-08-24T07:51:07;24.10;99.90
17701;DHT22;8969;48.576;12.580;2023-08-24T07:53:37;24.10;99.90
17701;DHT22;8969;48.576;12.580;2023-08-24T07:56:06;24.30;99.90
17701;DHT22;8969;48.576;12.580;2023-08-24T07:58:37;24.40;99.90
17701;DHT22;8969;48.576;12.580;2023-08-24T08:01:06;24.50;99.90
17701;DHT22;8969;48.576;12.580;2023-08-24T08:03:36;24.60;99.90
17701;DHT22;8969;48.576;12.580;2023-08-24T08:06:06;24.80;99.90
17701;DHT22;8969;48.576;12.580;2023-08-24T08:08:34;24.90;99.90
17701;DHT22;8969;48.576;12.580;2023-08-24T08:11:04;24.90;99.90
17701;DHT22;8969;48.576;12.580;2023-08-24T08:13:34;25.10;99.90
17701;DHT22;8969;48.576;12.580;2023-08-24T08:16:03;25.20;99.90
17701;DHT22;8969;48.576;12.580;2023-08-24T08:18:37;25.30;99.90
17701;DHT22;8969;48.576;12.580;2023-08-24T08:21:09;25.50;99.90
17701;DHT22;8969;48.576;12.580;2023-08-24T08:23:40;25.70;99.90
17701;DHT22;8969;48.576;12.580;2023-08-24T08:26:12;25.70;99.90
17701;DHT22;8969;48.576;12.580;2023-08-24T08:29:53;25.70;99.90
17701;DHT22;8969;48.576;12.580;2023-08-24T08:33:34;25.50;99.90
17701;DHT22;8969;48.576;12.580;2023-08-24T08:37:16;25.70;99.90
17701;DHT22;8969;48.576;12.580;2023-08-24T08:40:37;25.70;99.90
17701;DHT22;8969;48.576;12.580;2023-08-24T08:43:07;25.60;99.90
17701;DHT22;8969;48.576;12.580;2023-08-24T08:45:35;25.80;99.90
17701;DHT22;8969;48.576;12.580;2023-08-24T08:48:08;26.00;99.90
17701;DHT22;8969;48.576;12.580;2023-08-24T08:50:37;26.30;99.90
17701;DHT22;8969;48.576;12.580;2023-08-24T08:53:05;26.50;99.90
17701;DHT22;8969;48.576;12.580;2023-08-24T08:55:34;26.70;99.90
17701;DHT22;8969;48.576;12.580;2023-08-24T08:58:03;26.60;99.90
17701;DHT22;8969;48.576;12.580;2023-08-24T09:00:34;26.50;99.90
17701;DHT22;8969;48.576;12.580;2023-08-24T09:03:04;26.50;99.90
17701;DHT22;8969;48.576;12.580;2023-08-24T09:05:37;26.80;99.90
17701;DHT22;8969;48.576;12.580;2023-08-24T09:08:06;27.00;99.90
17701;DHT22;8969;48.576;12.580;2023-08-24T09:10:35;27.30;99.90
17701;DHT22;8969;48.576;12.580;2023-08-24T09:13:03;27.20;96.50
17701;DHT22;8969;48.576;12.580;2023-08-24T09:15:35;27.30;95.60
17701;DHT22;8969;48.576;12.580;2023-08-24T09:18:05;27.50;96.20
17701;DHT22;8969;48.576;12.580;2023-08-24T09:20:35;27.50;95.50
17701;DHT22;8969;48.576;12.580;2023-08-24T09:23:04;27.60;94.00
17701;DHT22;8969;48.576;12.580;2023-08-24T09:25:32;27.80;96.40
17701;DHT22;8969;48.576;12.580;2023-08-24T09:28:03;27.90;95.50
17701;DHT22;8969;48.576;12.580;2023-08-24T09:30:36;28.00;93.10
17701;DHT22;8969;48.576;12.580;2023-08-24T09:33:09;27.90;93.30
17701;DHT22;8969;48.576;12.580;2023-08-24T09:35:38;28.00;93.60
17701;DHT22;8969;48.576;12.580;2023-08-24T09:38:16;28.10;95.00
17701;DHT22;8969;48.576;12.580;2023-08-24T09:40:50;28.20;93.10
17701;DHT22;8969;48.576;12.580;2023-08-24T09:43:19;28.30;94.30
17701;DHT22;8969;48.576;12.580;2023-08-24T09:45:50;28.40;92.40
17701;DHT22;8969;48.576;12.580;2023-08-24T09:48:19;28.50;94.00
17701;DHT22;8969;48.576;12.580;2023-08-24T09:50:49;28.50;92.30
17701;DHT22;8969;48.576;12.580;2023-08-24T09:53:19;28.50;94.80
17701;DHT22;8969;48.576;12.580;2023-08-24T09:55:53;28.70;92.90
17701;DHT22;8969;48.576;12.580;2023-08-24T09:58:23;28.70;91.90
17701;DHT22;8969;48.576;12.580;2023-08-24T10:00:53;28.80;93.40
17701;DHT22;8969;48.576;12.580;2023-08-24T10:03:26;28.90;93.90
17701;DHT22;8969;48.576;12.580;2023-08-24T10:05:57;28.90;92.20
17701;DHT22;8969;48.576;12.580;2023-08-24T10:08:55;29.00;93.30
17701;DHT22;8969;48.576;12.580;2023-08-24T10:11:31;28.80;91.70
17701;DHT22;8969;48.576;12.580;2023-08-24T10:14:07;28.90;91.30
17701;DHT22;8969;48.576;12.580;2023-08-24T10:16:41;28.90;91.70
17701;DHT22;8969;48.576;12.580;2023-08-24T10:19:11;29.00;91.50
17701;DHT22;8969;48.576;12.580;2023-08-24T10:22:00;29.20;91.90
17701;DHT22;8969;48.576;12.580;2023-08-24T10:24:31;29.10;90.50
17701;DHT22;8969;48.576;12.580;2023-08-24T10:27:02;29.10;91.40
17701;DHT22;8969;48.576;12.580;2023-08-24T10:29:33;29.20;91.80
17701;DHT22;8969;48.576;12.580;2023-08-24T10:32:05;29.40;92.40
17701;DHT22;8969;48.576;12.580;2023-08-24T10:34:34;29.50;90.70
17701;DHT22;8969;48.576;12.580;2023-08-24T10:37:10;29.60;91.00
17701;DHT22;8969;48.576;12.580;2023-08-24T10:39:43;29.60;90.00
17701;DHT22;8969;48.576;12.580;2023-08-24T10:42:12;29.60;90.00
17701;DHT22;8969;48.576;12.580;2023-08-24T10:44:44;29.60;90.90
17701;DHT22;8969;48.576;12.580;2023-08-24T10:47:17;29.70;90.40
17701;DHT22;8969;48.576;12.580;2023-08-24T10:49:57;29.80;90.00
17701;DHT22;8969;48.576;12.580;2023-08-24T10:52:32;29.90;89.80
17701;DHT22;8969;48.576;12.580;2023-08-24T10:55:02;29.80;90.00
17701;DHT22;8969;48.576;12.580;2023-08-24T10:57:37;29.90;90.10
17701;DHT22;8969;48.576;12.580;2023-08-24T11:00:07;30.00;90.80
17701;DHT22;8969;48.576;12.580;2023-08-24T11:02:46;30.10;90.30
17701;DHT22;8969;48.576;12.580;2023-08-24T11:05:17;30.20;89.10
17701;DHT22;8969;48.576;12.580;2023-08-24T11:07:52;30.20;86.90
17701;DHT22;8969;48.576;12.580;2023-08-24T11:10:21;30.30;89.30
17701;DHT22;8969;48.576;12.580;2023-08-24T11:13:12;30.30;89.10
17701;DHT22;8969;48.576;12.580;2023-08-24T11:15:42;30.40;88.40
17701;DHT22;8969;48.576;12.580;2023-08-24T11:18:22;30.60;89.80
17701;DHT22;8969;48.576;12.580;2023-08-24T11:20:53;30.30;86.70
17701;DHT22;8969;48.576;12.580;2023-08-24T11:23:23;30.20;88.00
17701;DHT22;8969;48.576;12.580;2023-08-24T11:25:52;30.30;89.10
17701;DHT22;8969;48.576;12.580;2023-08-24T11:28:24;30.30;88.50
17701;DHT22;8969;48.576;12.580;2023-08-24T11:30:53;30.40;87.50
17701;DHT22;8969;48.576;12.580;2023-08-24T11:33:30;30.40;87.20
17701;DHT22;8969;48.576;12.580;2023-08-24T11:36:00;30.50;88.90
17701;DHT22;8969;48.576;12.580;2023-08-24T11:38:55;30.60;87.90
17701;DHT22;8969;48.576;12.580;2023-08-24T11:41:24;30.60;86.60
17701;DHT22;8969;48.576;12.580;2023-08-24T11:43:59;30.70;87.00
17701;DHT22;8969;48.576;12.580;2023-08-24T11:46:44;30.80;87.20
17701;DHT22;8969;48.576;12.580;2023-08-24T11:49:14;30.80;87.70
17701;DHT22;8969;48.576;12.580;2023-08-24T11:51:42;30.90;87.40
17701;DHT22;8969;48.576;12.580;2023-08-24T11:54:11;30.90;86.50
17701;DHT22;8969;48.576;12.580;2023-08-24T11:56:43;31.00;86.30
17701;DHT22;8969;48.576;12.580;2023-08-24T11:59:20;30.90;83.80
17701;DHT22;8969;48.576;12.580;2023-08-24T12:01:49;31.00;86.00
17701;DHT22;8969;48.576;12.580;2023-08-24T12:04:19;31.00;85.90
17701;DHT22;8969;48.576;12.580;2023-08-24T12:06:47;31.10;87.80
17701;DHT22;8969;48.576;12.580;2023-08-24T12:09:15;31.30;88.20
17701;DHT22;8969;48.576;12.580;2023-08-24T12:11:43;31.30;86.00
17701;DHT22;8969;48.576;12.580;2023-08-24T12:14:17;31.10;86.40
17701;DHT22;8969;48.576;12.580;2023-08-24T12:16:45;31.10;87.70
17701;DHT22;8969;48.576;12.580;2023-08-24T12:19:13;31.30;87.30
17701;DHT22;8969;48.576;12.580;2023-08-24T12:21:44;31.20;87.70
17701;DHT22;8969;48.576;12.580;2023-08-24T12:24:14;31.20;89.00
17701;DHT22;8969;48.576;12.580;2023-08-24T12:26:42;31.30;86.90
17701;DHT22;8969;48.576;12.580;2023-08-24T12:29:10;31.30;88.90
17701;DHT22;8969;48.576;12.580;2023-08-24T12:31:42;31.40;88.80
17701;DHT22;8969;48.576;12.580;2023-08-24T12:34:14;31.60;85.30
17701;DHT22;8969;48.576;12.580;2023-08-24T12:36:42;31.50;83.20
17701;DHT22;8969;48.576;12.580;2023-08-24T12:39:12;31.50;82.40
17701;DHT22;8969;48.576;12.580;2023-08-24T12:41:41;31.60;84.30
17701;DHT22;8969;48.576;12.580;2023-08-24T12:44:09;31.50;84.10
17701;DHT22;8969;48.576;12.580;2023-08-24T12:46:41;31.40;81.50
17701;DHT22;8969;48.576;12.580;2023-08-24T12:49:09;31.20;81.80
17701;DHT22;8969;48.576;12.580;2023-08-24T12:51:37;31.40;84.50
17701;DHT22;8969;48.576;12.580;2023-08-24T12:54:06;31.50;82.90
17701;DHT22;8969;48.576;12.580;2023-08-24T12:56:40;31.70;82.40
17701;DHT22;8969;48.576;12.580;2023-08-24T12:59:08;31.80;82.90
17701;DHT22;8969;48.576;12.580;2023-08-24T13:01:36;31.60;81.80
17701;DHT22;8969;48.576;12.580;2023-08-24T13:04:05;31.60;83.50
17701;DHT22;8969;48.576;12.580;2023-08-24T13:06:33;31.70;84.80
17701;DHT22;8969;48.576;12.580;2023-08-24T13:09:02;31.70;81.70
17701;DHT22;8969;48.576;12.580;2023-08-24T13:11:32;31.70;80.00
17701;DHT22;8969;48.576;12.580;2023-08-24T13:14:02;31.70;82.00
17701;DHT22;8969;48.576;12.580;2023-08-24T13:16:30;31.70;79.90
17701;DHT22;8969;48.576;12.580;2023-08-24T13:18:58;31.60;81.40
17701;DHT22;8969;48.576;12.580;2023-08-24T13:21:31;31.50;79.10
17701;DHT22;8969;48.576;12.580;2023-08-24T13:23:59;31.50;78.70
17701;DHT22;8969;48.576;12.580;2023-08-24T13:26:28;31.50;80.50
17701;DHT22;8969;48.576;12.580;2023-08-24T13:28:56;31.60;83.90
17701;DHT22;8969;48.576;12.580;2023-08-24T13:31:26;31.60;81.10
17701;DHT22;8969;48.576;12.580;2023-08-24T13:33:57;31.60;81.90
17701;DHT22;8969;48.576;12.580;2023-08-24T13:36:25;31.60;83.30
17701;DHT22;8969;48.576;12.580;2023-08-24T13:38:53;31.50;80.60
17701;DHT22;8969;48.576;12.580;2023-08-24T13:41:21;31.50;80.10
17701;DHT22;8969;48.576;12.580;2023-08-24T13:43:50;31.40;82.00
17701;DHT22;8969;48.576;12.580;2023-08-24T13:46:18;31.50;82.50
17701;DHT22;8969;48.576;12.580;2023-08-24T13:48:47;31.60;81.60
17701;DHT22;8969;48.576;12.580;2023-08-24T13:51:15;31.60;81.90
17701;DHT22;8969;48.576;12.580;2023-08-24T13:54:13;31.40;78.90
17701;DHT22;8969;48.576;12.580;2023-08-24T13:56:42;31.30;79.30
17701;DHT22;8969;48.576;12.580;2023-08-24T13:59:11;31.20;79.20
17701;DHT22;8969;48.576;12.580;2023-08-24T14:01:39;31.00;78.80
17701;DHT22;8969;48.576;12.580;2023-08-24T14:04:09;30.80;79.00
17701;DHT22;8969;48.576;12.580;2023-08-24T14:06:37;30.80;79.70
17701;DHT22;8969;48.576;12.580;2023-08-24T14:09:05;30.70;79.10
17701;DHT22;8969;48.576;12.580;2023-08-24T14:11:34;30.60;80.60
17701;DHT22;8969;48.576;12.580;2023-08-24T14:14:02;30.80;81.90
17701;DHT22;8969;48.576;12.580;2023-08-24T14:16:33;30.90;82.80
17701;DHT22;8969;48.576;12.580;2023-08-24T14:19:01;30.90;81.90
17701;DHT22;8969;48.576;12.580;2023-08-24T14:21:38;30.90;81.70
17701;DHT22;8969;48.576;12.580;2023-08-24T14:24:09;30.90;82.60
17701;DHT22;8969;48.576;12.580;2023-08-24T14:26:37;30.80;82.70
17701;DHT22;8969;48.576;12.580;2023-08-24T14:29:13;30.80;84.30
17701;DHT22;8969;48.576;12.580;2023-08-24T14:31:41;30.80;81.50
17701;DHT22;8969;48.576;12.580;2023-08-24T14:34:09;30.70;82.00
17701;DHT22;8969;48.576;12.580;2023-08-24T14:36:39;30.70;81.80
17701;DHT22;8969;48.576;12.580;2023-08-24T14:39:07;30.50;83.00
17701;DHT22;8969;48.576;12.580;2023-08-24T14:41:41;30.50;83.00
17701;DHT22;8969;48.576;12.580;2023-08-24T14:44:09;30.50;83.80
17701;DHT22;8969;48.576;12.580;2023-08-24T14:46:38;30.40;82.40
17701;DHT22;8969;48.576;12.580;2023-08-24T14:49:06;30.30;83.00
17701;DHT22;8969;48.576;12.580;2023-08-24T14:51:35;30.10;82.50
17701;DHT22;8969;48.576;12.580;2023-08-24T14:54:05;30.10;83.90
17701;DHT22;8969;48.576;12.580;2023-08-24T14:56:34;30.00;84.00
17701;DHT22;8969;48.576;12.580;2023-08-24T14:59:02;30.00;84.90
17701;DHT22;8969;48.576;12.580;2023-08-24T15:01:31;29.90;83.90
17701;DHT22;8969;48.576;12.580;2023-08-24T15:04:28;29.90;85.10
17701;DHT22;8969;48.576;12.580;2023-08-24T15:06:57;29.90;83.70
17701;DHT22;8969;48.576;12.580;2023-08-24T15:09:26;29.80;83.90
17701;DHT22;8969;48.576;12.580;2023-08-24T15:11:54;29.90;84.40
17701;DHT22;8969;48.576;12.580;2023-08-24T15:14:23;29.90;86.30
17701;DHT22;8969;48.576;12.580;2023-08-24T15:16:51;29.80;86.00
17701;DHT22;8969;48.576;12.580;2023-08-24T15:19:19;29.70;86.60
17701;DHT22;8969;48.576;12.580;2023-08-24T15:21:47;29.70;87.00
17701;DHT22;8969;48.576;12.580;2023-08-24T15:24:15;29.70;88.30
17701;DHT22;8969;48.576;12.580;2023-08-24T15:26:45;29.70;89.10
17701;DHT22;8969;48.576;12.580;2023-08-24T15:29:14;29.60;88.30
17701;DHT22;8969;48.576;12.580;2023-08-24T15:31:45;29.70;87.00
17701;DHT22;8969;48.576;12.580;2023-08-24T15:34:15;29.60;89.60
17701;DHT22;8969;48.576;12.580;2023-08-24T15:36:43;29.60;89.10
17701;DHT22;8969;48.576;12.580;2023-08-24T15:39:11;29.50;89.30
17701;DHT22;8969;48.576;12.580;2023-08-24T15:41:41;29.50;89.40
17701;DHT22;8969;48.576;12.580;2023-08-24T15:44:13;29.40;90.10
17701;DHT22;8969;48.576;12.580;2023-08-24T15:47:11;29.40;90.60
17701;DHT22;8969;48.576;12.580;2023-08-24T15:49:47;29.30;90.40
17701;DHT22;8969;48.576;12.580;2023-08-24T15:52:15;29.30;90.20
17701;DHT22;8969;48.576;12.580;2023-08-24T15:54:43;29.20;90.40
17701;DHT22;8969;48.576;12.580;2023-08-24T15:57:14;29.30;90.80